sensor_id;sensor_type;location;lat;lon;timestamp;pressure;altitude;pressure_sealevel;temperature;humidity
6395;BME280;3230;42.588;23.358;2023-08-07T00:01:43;90577.84;;;14.81;100.00
6395;BME280;3230;42.588;23.358;2023-08-07T00:04:08;90577.06;;;14.71;100.00
6395;BME280;3230;42.588;23.358;2023-08-07T00:06:33;90575.81;;;14.60;100.00
6395;BME280;3230;42.588;23.358;2023-08-07T00:08:59;90580.88;;;14.39;100.00
6395;BME280;3230;42.588;23.358;2023-08-07T00:11:24;90592.81;;;14.36;100.00
6395;BME280;3230;42.588;23.358;2023-08-07T00:13:49;90586.59;;;14.32;100.00
6395;BME280;3230;42.588;23.358;2023-08-07T00:16:15;90587.84;;;14.26;100.00
6395;BME280;3230;42.588;23.358;2023-08-07T00:18:40;90588.19;;;14.51;100.00
6395;BME280;3230;42.588;23.358;2023-08-07T00:21:05;90588.78;;;14.48;100.00
6395;BME280;3230;42.588;23.358;2023-08-07T00:23:31;90583.66;;;14.25;100.00
6395;BME280;3230;42.588;23.358;2023-08-07T00:25:56;90574.91;;;14.07;100.00
6395;BME280;3230;42.588;23.358;2023-08-07T00:28:22;90585.19;;;13.86;100.00
6395;BME280;3230;42.588;23.358;2023-08-07T00:30:47;90581.66;;;13.90;100.00
6395;BME280;3230;42.588;23.358;2023-08-07T00:33:12;90579.72;;;13.73;100.00
6395;BME280;3230;42.588;23.358;2023-08-07T00:35:38;90590.44;;;13.77;100.00
6395;BME280;3230;42.588;23.358;2023-08-07T00:38:03;90598.50;;;13.81;100.00
6395;BME280;3230;42.588;23.358;2023-08-07T00:40:36;90611.38;;;13.82;100.00
6395;BME280;3230;42.588;23.358;2023-08-07T00:43:02;90606.19;;;13.68;100.00
6395;BME280;3230;42.588;23.358;2023-08-07T00:45:28;90607.09;;;13.64;100.00
6395;BME280;3230;42.588;23.358;2023-08-07T00:47:53;90605.97;;;13.56;100.00
6395;BME280;3230;42.588;23.358;2023-08-07T00:50:18;90618.06;;;13.57;100.00
6395;BME280;3230;42.588;23.358;2023-08-07T00:52:44;90612.19;;;13.60;100.00
6395;BME280;3230;42.588;23.358;2023-08-07T00:55:11;90617.28;;;13.56;100.00
6395;BME280;3230;42.588;23.358;2023-08-07T00:57:36;90613.34;;;13.45;100.00
6395;BME280;3230;42.588;23.358;2023-08-07T01:00:02;90600.78;;;13.19;100.00
6395;BME280;3230;42.588;23.358;2023-08-07T01:02:28;90611.78;;;13.44;100.00
6395;BME280;3230;42.588;23.358;2023-08-07T01:04:53;90624.88;;;13.35;100.00
6395;BME280;3230;42.588;23.358;2023-08-07T01:07:19;90619.38;;;13.46;100.00
6395;BME280;3230;42.588;23.358;2023-08-07T01:09:44;90632.66;;;13.40;100.00
6395;BME280;3230;42.588;23.358;2023-08-07T01:12:18;90630.97;;;13.22;100.00
6395;BME280;3230;42.588;23.358;2023-08-07T01:17:16;90631.47;;;13.24;100.00
6395;BME280;3230;42.588;23.358;2023-08-07T01:19:42;90628.22;;;13.27;100.00
6395;BME280;3230;42.588;23.358;2023-08-07T01:22:12;90625.84;;;13.17;100.00
6395;BME280;3230;42.588;23.358;2023-08-07T01:24:42;90630.84;;;13.27;100.00
6395;BME280;3230;42.588;23.358;2023-08-07T01:29:59;90624.34;;;13.24;100.00
6395;BME280;3230;42.588;23.358;2023-08-07T01:35:14;90632.00;;;13.12;100.00
6395;BME280;3230;42.588;23.358;2023-08-07T01:37:42;90632.81;;;12.99;100.00
6395;BME280;3230;42.588;23.358;2023-08-07T01:40:08;90628.94;;;12.96;100.00
6395;BME280;3230;42.588;23.358;2023-08-07T01:42:35;90637.59;;;12.96;100.00
6395;BME280;3230;42.588;23.358;2023-08-07T01:45:01;90638.00;;;12.90;100.00
6395;BME280;3230;42.588;23.358;2023-08-07T01:47:26;90628.19;;;12.82;100.00
6395;BME280;3230;42.588;23.358;2023-08-07T01:49:52;90630.69;;;12.87;100.00
6395;BME280;3230;42.588;23.358;2023-08-07T01:52:17;90624.50;;;12.83;100.00
6395;BME280;3230;42.588;23.358;2023-08-07T01:54:42;90627.50;;;12.90;100.00
6395;BME280;3230;42.588;23.358;2023-08-07T01:57:08;90628.56;;;12.89;100.00
6395;BME280;3230;42.588;23.358;2023-08-07T01:59:33;90629.25;;;12.80;100.00
6395;BME280;3230;42.588;23.358;2023-08-07T02:01:58;90620.78;;;12.84;100.00
6395;BME280;3230;42.588;23.358;2023-08-07T02:04:24;90634.03;;;12.78;100.00
6395;BME280;3230;42.588;23.358;2023-08-07T02:06:49;90629.50;;;12.70;100.00
6395;BME280;3230;42.588;23.358;2023-08-07T02:09:14;90641.25;;;12.73;100.00
6395;BME280;3230;42.588;23.358;2023-08-07T02:11:40;90642.53;;;12.61;100.00
6395;BME280;3230;42.588;23.358;2023-08-07T02:14:05;90640.91;;;12.52;100.00
6395;BME280;3230;42.588;23.358;2023-08-07T02:16:30;90647.31;;;12.45;100.00
6395;BME280;3230;42.588;23.358;2023-08-07T02:18:56;90645.56;;;12.55;100.00
6395;BME280;3230;42.588;23.358;2023-08-07T02:21:21;90651.69;;;12.64;100.00
6395;BME280;3230;42.588;23.358;2023-08-07T02:23:49;90656.94;;;12.64;100.00
6395;BME280;3230;42.588;23.358;2023-08-07T02:26:15;90649.16;;;12.59;100.00
6395;BME280;3230;42.588;23.358;2023-08-07T02:28:40;90654.34;;;12.50;100.00
6395;BME280;3230;42.588;23.358;2023-08-07T02:31:05;90651.50;;;12.46;100.00
6395;BME280;3230;42.588;23.358;2023-08-07T02:33:31;90662.63;;;12.43;100.00
6395;BME280;3230;42.588;23.358;2023-08-07T02:35:57;90656.78;;;12.46;100.00
6395;BME280;3230;42.588;23.358;2023-08-07T02:38:23;90650.44;;;12.47;100.00
6395;BME280;3230;42.588;23.358;2023-08-07T02:40:48;90646.94;;;12.38;100.00
6395;BME280;3230;42.588;23.358;2023-08-07T02:43:13;90656.88;;;12.41;100.00
6395;BME280;3230;42.588;23.358;2023-08-07T02:45:39;90657.25;;;12.35;100.00
6395;BME280;3230;42.588;23.358;2023-08-07T02:48:04;90647.34;;;12.31;100.00
6395;BME280;3230;42.588;23.358;2023-08-07T02:50:30;90661.75;;;12.34;100.00
6395;BME280;3230;42.588;23.358;2023-08-07T02:52:58;90669.31;;;12.36;100.00
6395;BME280;3230;42.588;23.358;2023-08-07T02:55:23;90665.53;;;12.28;100.00
6395;BME280;3230;42.588;23.358;2023-08-07T02:57:49;90683.66;;;12.15;100.00
6395;BME280;3230;42.588;23.358;2023-08-07T03:00:14;90678.84;;;12.18;100.00
6395;BME280;3230;42.588;23.358;2023-08-07T03:02:40;90679.06;;;12.07;100.00
6395;BME280;3230;42.588;23.358;2023-08-07T03:05:05;90675.53;;;11.98;100.00
6395;BME280;3230;42.588;23.358;2023-08-07T03:07:31;90672.41;;;11.96;100.00
6395;BME280;3230;42.588;23.358;2023-08-07T03:09:56;90671.28;;;12.02;100.00
6395;BME280;3230;42.588;23.358;2023-08-07T03:12:21;90678.16;;;11.98;100.00
6395;BME280;3230;42.588;23.358;2023-08-07T03:14:47;90683.97;;;11.95;100.00
6395;BME280;3230;42.588;23.358;2023-08-07T03:17:12;90684.63;;;11.87;100.00
6395;BME280;3230;42.588;23.358;2023-08-07T03:19:43;90695.91;;;11.87;100.00
6395;BME280;3230;42.588;23.358;2023-08-07T03:22:08;90690.78;;;11.96;100.00
6395;BME280;3230;42.588;23.358;2023-08-07T03:24:34;90704.91;;;12.00;100.00
6395;BME280;3230;42.588;23.358;2023-08-07T03:26:59;90697.53;;;12.02;100.00
6395;BME280;3230;42.588;23.358;2023-08-07T03:29:25;90714.81;;;12.03;100.00
6395;BME280;3230;42.588;23.358;2023-08-07T03:31:50;90720.47;;;12.10;100.00
6395;BME280;3230;42.588;23.358;2023-08-07T03:34:16;90719.44;;;12.25;100.00
6395;BME280;3230;42.588;23.358;2023-08-07T03:36:41;90721.56;;;12.37;100.00
6395;BME280;3230;42.588;23.358;2023-08-07T03:39:06;90713.31;;;12.44;100.00
6395;BME280;3230;42.588;23.358;2023-08-07T03:41:32;90716.16;;;12.47;100.00
6395;BME280;3230;42.588;23.358;2023-08-07T03:43:58;90712.91;;;12.51;100.00
6395;BME280;3230;42.588;23.358;2023-08-07T03:46:23;90715.47;;;12.56;100.00
6395;BME280;3230;42.588;23.358;2023-08-07T03:48:48;90726.56;;;12.67;100.00
6395;BME280;3230;42.588;23.358;2023-08-07T03:51:14;90723.06;;;12.57;100.00
6395;BME280;3230;42.588;23.358;2023-08-07T03:53:42;90728.50;;;12.61;100.00
6395;BME280;3230;42.588;23.358;2023-08-07T03:56:07;90728.69;;;12.64;100.00
6395;BME280;3230;42.588;23.358;2023-08-07T03:58:33;90735.31;;;12.62;100.00
6395;BME280;3230;42.588;23.358;2023-08-07T04:00:58;90748.56;;;12.71;100.00
6395;BME280;3230;42.588;23.358;2023-08-07T04:03:24;90745.25;;;12.79;100.00
6395;BME280;3230;42.588;23.358;2023-08-07T04:05:53;90753.00;;;12.98;100.00
6395;BME280;3230;42.588;23.358;2023-08-07T04:08:20;90737.28;;;13.21;100.00
6395;BME280;3230;42.588;23.358;2023-08-07T04:10:45;90737.34;;;13.30;100.00
6395;BME280;3230;42.588;23.358;2023-08-07T04:13:10;90738.91;;;13.45;100.00
6395;BME280;3230;42.588;23.358;2023-08-07T04:15:36;90754.34;;;13.60;100.00
6395;BME280;3230;42.588;23.358;2023-08-07T04:18:01;90744.22;;;13.76;100.00
6395;BME280;3230;42.588;23.358;2023-08-07T04:20:27;90753.47;;;13.87;100.00
6395;BME280;3230;42.588;23.358;2023-08-07T04:22:52;90752.75;;;13.96;100.00
6395;BME280;3230;42.588;23.358;2023-08-07T04:25:18;90756.03;;;14.01;100.00
6395;BME280;3230;42.588;23.358;2023-08-07T04:27:43;90748.84;;;13.93;100.00
6395;BME280;3230;42.588;23.358;2023-08-07T04:30:09;90757.91;;;14.32;100.00
6395;BME280;3230;42.588;23.358;2023-08-07T04:32:34;90756.50;;;14.26;100.00
6395;BME280;3230;42.588;23.358;2023-08-07T04:34:59;90751.13;;;14.40;100.00
6395;BME280;3230;42.588;23.358;2023-08-07T04:37:25;90755.16;;;14.69;100.00
6395;BME280;3230;42.588;23.358;2023-08-07T04:39:50;90756.78;;;14.96;100.00
6395;BME280;3230;42.588;23.358;2023-08-07T04:42:16;90761.44;;;14.91;100.00
6395;BME280;3230;42.588;23.358;2023-08-07T04:44:42;90762.59;;;14.76;100.00
6395;BME280;3230;42.588;23.358;2023-08-07T04:47:07;90768.75;;;15.02;100.00
6395;BME280;3230;42.588;23.358;2023-08-07T04:49:32;90764.75;;;15.23;100.00
6395;BME280;3230;42.588;23.358;2023-08-07T04:51:58;90766.47;;;15.27;100.00
6395;BME280;3230;42.588;23.358;2023-08-07T04:54:23;90767.91;;;15.42;100.00
6395;BME280;3230;42.588;23.358;2023-08-07T04:56:49;90777.06;;;15.54;100.00
6395;BME280;3230;42.588;23.358;2023-08-07T04:59:14;90774.44;;;15.71;100.00
6395;BME280;3230;42.588;23.358;2023-08-07T05:01:39;90778.81;;;15.85;100.00
6395;BME280;3230;42.588;23.358;2023-08-07T05:04:05;90774.25;;;15.59;100.00
6395;BME280;3230;42.588;23.358;2023-08-07T05:06:31;90771.78;;;15.54;100.00
6395;BME280;3230;42.588;23.358;2023-08-07T05:08:56;90766.06;;;15.51;100.00
6395;BME280;3230;42.588;23.358;2023-08-07T05:11:22;90768.38;;;15.71;100.00
6395;BME280;3230;42.588;23.358;2023-08-07T05:13:47;90772.88;;;15.79;100.00
6395;BME280;3230;42.588;23.358;2023-08-07T05:16:12;90762.66;;;15.86;100.00
6395;BME280;3230;42.588;23.358;2023-08-07T05:18:38;90763.81;;;16.41;100.00
6395;BME280;3230;42.588;23.358;2023-08-07T05:21:03;90769.97;;;17.10;99.93
6395;BME280;3230;42.588;23.358;2023-08-07T05:23:28;90773.69;;;17.39;96.27
6395;BME280;3230;42.588;23.358;2023-08-07T05:25:54;90770.78;;;17.53;95.72
6395;BME280;3230;42.588;23.358;2023-08-07T05:28:19;90767.84;;;17.76;93.88
6395;BME280;3230;42.588;23.358;2023-08-07T05:30:45;90769.31;;;17.86;93.16
6395;BME280;3230;42.588;23.358;2023-08-07T05:33:10;90777.34;;;20.58;86.56
6395;BME280;3230;42.588;23.358;2023-08-07T05:35:37;90778.84;;;22.86;72.34
6395;BME280;3230;42.588;23.358;2023-08-07T05:38:03;90772.09;;;24.53;57.63
6395;BME280;3230;42.588;23.358;2023-08-07T05:40:28;90777.34;;;26.25;51.64
6395;BME280;3230;42.588;23.358;2023-08-07T05:42:55;90637.00;;;26.64;45.21
6395;BME280;3230;42.588;23.358;2023-08-07T05:45:20;90764.53;;;28.01;43.80
6395;BME280;3230;42.588;23.358;2023-08-07T05:47:45;90777.53;;;28.42;42.36
6395;BME280;3230;42.588;23.358;2023-08-07T05:50:11;90785.16;;;28.62;41.93
6395;BME280;3230;42.588;23.358;2023-08-07T05:52:36;90796.72;;;29.96;38.79
6395;BME280;3230;42.588;23.358;2023-08-07T05:55:02;90790.66;;;30.61;37.25
6395;BME280;3230;42.588;23.358;2023-08-07T05:57:28;90790.53;;;32.09;34.38
6395;BME280;3230;42.588;23.358;2023-08-07T05:59:53;90790.63;;;32.69;33.63
6395;BME280;3230;42.588;23.358;2023-08-07T06:02:19;90789.94;;;32.65;33.17
6395;BME280;3230;42.588;23.358;2023-08-07T06:04:44;90780.53;;;32.70;32.73
6395;BME280;3230;42.588;23.358;2023-08-07T06:07:10;90778.88;;;33.86;30.57
6395;BME280;3230;42.588;23.358;2023-08-07T06:09:36;90786.47;;;33.58;30.89
6395;BME280;3230;42.588;23.358;2023-08-07T06:12:01;90783.94;;;32.54;32.86
6395;BME280;3230;42.588;23.358;2023-08-07T06:14:26;90789.16;;;32.65;32.48
6395;BME280;3230;42.588;23.358;2023-08-07T06:16:52;90784.13;;;33.24;31.13
6395;BME280;3230;42.588;23.358;2023-08-07T06:19:17;90781.81;;;31.98;33.63
6395;BME280;3230;42.588;23.358;2023-08-07T06:21:43;90789.78;;;33.66;30.78
6395;BME280;3230;42.588;23.358;2023-08-07T06:24:08;90780.44;;;32.33;32.14
6395;BME280;3230;42.588;23.358;2023-08-07T06:26:34;90780.22;;;30.25;35.17
6395;BME280;3230;42.588;23.358;2023-08-07T06:28:59;90766.31;;;29.29;37.87
6395;BME280;3230;42.588;23.358;2023-08-07T06:31:25;90768.97;;;29.40;36.76
6395;BME280;3230;42.588;23.358;2023-08-07T06:33:50;90762.28;;;29.02;38.01
6395;BME280;3230;42.588;23.358;2023-08-07T06:36:15;90763.72;;;29.74;36.68
6395;BME280;3230;42.588;23.358;2023-08-07T06:38:41;90765.53;;;30.26;36.00
6395;BME280;3230;42.588;23.358;2023-08-07T06:41:06;90775.25;;;29.75;35.69
6395;BME280;3230;42.588;23.358;2023-08-07T06:43:31;90777.50;;;31.25;33.68
6395;BME280;3230;42.588;23.358;2023-08-07T06:45:58;90779.22;;;32.14;33.03
6395;BME280;3230;42.588;23.358;2023-08-07T06:48:24;90786.63;;;32.78;32.05
6395;BME280;3230;42.588;23.358;2023-08-07T06:50:50;90788.09;;;31.95;32.45
6395;BME280;3230;42.588;23.358;2023-08-07T06:53:16;90781.13;;;30.84;34.40
6395;BME280;3230;42.588;23.358;2023-08-07T06:55:42;90784.06;;;30.28;35.21
6395;BME280;3230;42.588;23.358;2023-08-07T06:58:07;90782.53;;;29.25;36.80
6395;BME280;3230;42.588;23.358;2023-08-07T07:00:33;90784.88;;;29.30;38.55
6395;BME280;3230;42.588;23.358;2023-08-07T07:03:00;90775.75;;;30.08;37.35
6395;BME280;3230;42.588;23.358;2023-08-07T07:05:26;90786.97;;;30.44;35.47
6395;BME280;3230;42.588;23.358;2023-08-07T07:07:51;90781.53;;;29.64;36.70
6395;BME280;3230;42.588;23.358;2023-08-07T07:10:17;90782.66;;;30.85;34.04
6395;BME280;3230;42.588;23.358;2023-08-07T07:12:42;90796.28;;;31.64;32.68
6395;BME280;3230;42.588;23.358;2023-08-07T07:15:08;90782.38;;;29.54;36.07
6395;BME280;3230;42.588;23.358;2023-08-07T07:17:34;90782.38;;;29.54;36.30
6395;BME280;3230;42.588;23.358;2023-08-07T07:20:00;90783.72;;;31.22;34.29
6395;BME280;3230;42.588;23.358;2023-08-07T07:22:25;90783.19;;;32.53;32.08
6395;BME280;3230;42.588;23.358;2023-08-07T07:24:51;90783.78;;;33.01;30.62
6395;BME280;3230;42.588;23.358;2023-08-07T07:27:16;90784.56;;;33.02;31.55
6395;BME280;3230;42.588;23.358;2023-08-07T07:29:41;90780.81;;;32.56;30.64
6395;BME280;3230;42.588;23.358;2023-08-07T07:32:07;90787.06;;;32.52;32.86
6395;BME280;3230;42.588;23.358;2023-08-07T07:34:33;90786.66;;;33.84;29.91
6395;BME280;3230;42.588;23.358;2023-08-07T07:36:58;90775.47;;;33.29;30.64
6395;BME280;3230;42.588;23.358;2023-08-07T07:39:23;90785.03;;;34.03;30.12
6395;BME280;3230;42.588;23.358;2023-08-07T07:41:49;90784.38;;;34.74;28.33
6395;BME280;3230;42.588;23.358;2023-08-07T07:44:14;90797.06;;;35.88;26.49
6395;BME280;3230;42.588;23.358;2023-08-07T07:46:40;90791.56;;;35.11;27.90
6395;BME280;3230;42.588;23.358;2023-08-07T07:49:05;90801.59;;;34.84;26.69
6395;BME280;3230;42.588;23.358;2023-08-07T07:51:31;90797.94;;;35.72;26.65
6395;BME280;3230;42.588;23.358;2023-08-07T07:53:58;90785.97;;;34.59;27.56
6395;BME280;3230;42.588;23.358;2023-08-07T07:56:23;90792.59;;;35.68;26.73
6395;BME280;3230;42.588;23.358;2023-08-07T07:58:49;90786.88;;;34.39;28.34
6395;BME280;3230;42.588;23.358;2023-08-07T08:01:14;90782.66;;;34.51;28.01
6395;BME280;3230;42.588;23.358;2023-08-07T08:03:39;90782.00;;;34.77;27.44
6395;BME280;3230;42.588;23.358;2023-08-07T08:06:05;90786.59;;;35.48;27.13
6395;BME280;3230;42.588;23.358;2023-08-07T08:08:30;90784.34;;;35.59;26.57
6395;BME280;3230;42.588;23.358;2023-08-07T08:10:56;90787.66;;;36.15;26.38
6395;BME280;3230;42.588;23.358;2023-08-07T08:13:21;90789.94;;;37.09;24.23
6395;BME280;3230;42.588;23.358;2023-08-07T08:15:47;90793.13;;;36.15;26.00
6395;BME280;3230;42.588;23.358;2023-08-07T08:18:13;90791.09;;;36.63;23.92
6395;BME280;3230;42.588;23.358;2023-08-07T08:20:38;90782.25;;;36.37;24.80
6395;BME280;3230;42.588;23.358;2023-08-07T08:23:04;90772.09;;;36.95;25.02
6395;BME280;3230;42.588;23.358;2023-08-07T08:25:31;90791.41;;;36.30;25.40
6395;BME280;3230;42.588;23.358;2023-08-07T08:27:58;90781.38;;;35.66;25.85
6395;BME280;3230;42.588;23.358;2023-08-07T08:30:23;90784.78;;;37.11;24.21
6395;BME280;3230;42.588;23.358;2023-08-07T08:32:49;90780.34;;;36.82;24.92
6395;BME280;3230;42.588;23.358;2023-08-07T08:35:14;90778.06;;;37.56;23.20
6395;BME280;3230;42.588;23.358;2023-08-07T08:37:40;90778.03;;;36.58;24.19
6395;BME280;3230;42.588;23.358;2023-08-07T08:40:06;90770.34;;;36.44;24.17
6395;BME280;3230;42.588;23.358;2023-08-07T08:42:34;90761.44;;;34.46;27.15
6395;BME280;3230;42.588;23.358;2023-08-07T08:45:00;90761.56;;;34.85;26.08
6395;BME280;3230;42.588;23.358;2023-08-07T08:47:29;90769.59;;;35.69;25.45
6395;BME280;3230;42.588;23.358;2023-08-07T08:50:07;90766.09;;;35.82;25.63
6395;BME280;3230;42.588;23.358;2023-08-07T08:52:33;90766.88;;;37.82;23.29
6395;BME280;3230;42.588;23.358;2023-08-07T08:55:01;90767.09;;;37.97;22.89
6395;BME280;3230;42.588;23.358;2023-08-07T08:57:27;90773.22;;;37.70;22.83
6395;BME280;3230;42.588;23.358;2023-08-07T08:59:53;90757.53;;;36.54;24.42
6395;BME280;3230;42.588;23.358;2023-08-07T09:02:18;90753.88;;;36.34;24.05
6395;BME280;3230;42.588;23.358;2023-08-07T09:04:44;90745.63;;;36.25;25.54
6395;BME280;3230;42.588;23.358;2023-08-07T09:07:15;90749.91;;;36.48;24.43
6395;BME280;3230;42.588;23.358;2023-08-07T09:09:42;90748.59;;;34.76;25.79
6395;BME280;3230;42.588;23.358;2023-08-07T09:12:16;90745.81;;;35.18;26.97
6395;BME280;3230;42.588;23.358;2023-08-07T09:14:44;90747.22;;;34.97;27.10
6395;BME280;3230;42.588;23.358;2023-08-07T09:17:13;90739.72;;;33.14;27.76
6395;BME280;3230;42.588;23.358;2023-08-07T09:19:40;90734.13;;;31.02;30.95
6395;BME280;3230;42.588;23.358;2023-08-07T09:22:05;90733.72;;;29.61;34.03
6395;BME280;3230;42.588;23.358;2023-08-07T09:24:32;90737.50;;;28.48;36.08
6395;BME280;3230;42.588;23.358;2023-08-07T09:26:58;90728.00;;;27.96;36.90
6395;BME280;3230;42.588;23.358;2023-08-07T09:29:24;90730.34;;;26.78;37.69
6395;BME280;3230;42.588;23.358;2023-08-07T09:31:49;90724.47;;;26.55;40.28
6395;BME280;3230;42.588;23.358;2023-08-07T09:34:19;90716.00;;;26.34;39.17
6395;BME280;3230;42.588;23.358;2023-08-07T09:36:45;90712.84;;;26.14;41.32
6395;BME280;3230;42.588;23.358;2023-08-07T09:39:10;90717.66;;;25.80;40.68
6395;BME280;3230;42.588;23.358;2023-08-07T09:41:36;90714.44;;;25.60;41.96
6395;BME280;3230;42.588;23.358;2023-08-07T09:44:06;90721.63;;;25.41;41.67
6395;BME280;3230;42.588;23.358;2023-08-07T09:46:41;90722.91;;;25.13;42.87
6395;BME280;3230;42.588;23.358;2023-08-07T09:49:06;90722.28;;;25.34;41.97
6395;BME280;3230;42.588;23.358;2023-08-07T09:51:45;90726.97;;;25.41;42.18
6395;BME280;3230;42.588;23.358;2023-08-07T09:54:11;90719.31;;;24.95;42.22
6395;BME280;3230;42.588;23.358;2023-08-07T09:56:38;90731.03;;;24.79;43.75
6395;BME280;3230;42.588;23.358;2023-08-07T09:59:05;90728.44;;;24.86;43.17
6395;BME280;3230;42.588;23.358;2023-08-07T10:01:31;90723.94;;;24.60;42.74
6395;BME280;3230;42.588;23.358;2023-08-07T10:03:57;90730.78;;;24.57;44.55
6395;BME280;3230;42.588;23.358;2023-08-07T10:06:23;90725.81;;;24.56;43.66
6395;BME280;3230;42.588;23.358;2023-08-07T10:08:49;90719.84;;;24.32;45.26
6395;BME280;3230;42.588;23.358;2023-08-07T10:11:15;90723.34;;;24.40;44.08
6395;BME280;3230;42.588;23.358;2023-08-07T10:13:41;90727.03;;;24.62;43.50
6395;BME280;3230;42.588;23.358;2023-08-07T10:16:07;90725.13;;;24.63;43.67
6395;BME280;3230;42.588;23.358;2023-08-07T10:18:33;90723.44;;;24.47;43.83
6395;BME280;3230;42.588;23.358;2023-08-07T10:21:01;90731.50;;;24.51;46.47
6395;BME280;3230;42.588;23.358;2023-08-07T10:23:26;90723.91;;;24.56;45.38
6395;BME280;3230;42.588;23.358;2023-08-07T10:25:52;90716.69;;;24.61;42.61
6395;BME280;3230;42.588;23.358;2023-08-07T10:28:19;90726.25;;;24.62;46.43
6395;BME280;3230;42.588;23.358;2023-08-07T10:30:46;90730.09;;;24.64;44.89
6395;BME280;3230;42.588;23.358;2023-08-07T10:33:14;90734.00;;;24.67;43.73
6395;BME280;3230;42.588;23.358;2023-08-07T10:35:45;90730.38;;;24.89;43.31
6395;BME280;3230;42.588;23.358;2023-08-07T10:38:12;90725.63;;;24.72;43.15
6395;BME280;3230;42.588;23.358;2023-08-07T10:43:26;90722.69;;;24.88;43.12
6395;BME280;3230;42.588;23.358;2023-08-07T10:45:53;90731.03;;;24.79;43.15
6395;BME280;3230;42.588;23.358;2023-08-07T10:48:20;90728.94;;;24.62;43.64
6395;BME280;3230;42.588;23.358;2023-08-07T10:51:03;90725.22;;;24.70;42.59
6395;BME280;3230;42.588;23.358;2023-08-07T10:53:30;90726.38;;;24.69;43.58
6395;BME280;3230;42.588;23.358;2023-08-07T10:55:57;90722.41;;;24.97;42.20
6395;BME280;3230;42.588;23.358;2023-08-07T10:58:29;90721.31;;;25.05;43.50
6395;BME280;3230;42.588;23.358;2023-08-07T11:03:59;90716.69;;;25.02;43.09
6395;BME280;3230;42.588;23.358;2023-08-07T11:06:27;90714.63;;;24.84;42.56
6395;BME280;3230;42.588;23.358;2023-08-07T11:08:53;90711.34;;;25.02;45.86
6395;BME280;3230;42.588;23.358;2023-08-07T11:11:18;90704.84;;;25.03;43.30
6395;BME280;3230;42.588;23.358;2023-08-07T11:13:44;90709.09;;;25.11;41.54
6395;BME280;3230;42.588;23.358;2023-08-07T11:16:11;90707.63;;;25.14;42.33
6395;BME280;3230;42.588;23.358;2023-08-07T11:18:38;90702.66;;;25.19;42.62
6395;BME280;3230;42.588;23.358;2023-08-07T11:21:10;90702.00;;;25.33;42.28
6395;BME280;3230;42.588;23.358;2023-08-07T11:23:40;90695.47;;;25.34;43.22
6395;BME280;3230;42.588;23.358;2023-08-07T11:26:06;90693.84;;;25.19;41.55
6395;BME280;3230;42.588;23.358;2023-08-07T11:28:32;90693.88;;;25.22;41.65
6395;BME280;3230;42.588;23.358;2023-08-07T11:30:58;90681.41;;;25.45;40.66
6395;BME280;3230;42.588;23.358;2023-08-07T11:33:25;90683.91;;;25.82;42.17
6395;BME280;3230;42.588;23.358;2023-08-07T11:35:51;90683.75;;;26.31;40.06
6395;BME280;3230;42.588;23.358;2023-08-07T11:40:57;90682.91;;;26.12;40.60
6395;BME280;3230;42.588;23.358;2023-08-07T11:43:23;90672.66;;;26.43;41.03
6395;BME280;3230;42.588;23.358;2023-08-07T11:45:48;90685.72;;;26.56;39.38
6395;BME280;3230;42.588;23.358;2023-08-07T11:48:15;90690.75;;;26.72;39.13
6395;BME280;3230;42.588;23.358;2023-08-07T11:50:41;90690.78;;;26.79;37.92
6395;BME280;3230;42.588;23.358;2023-08-07T11:53:07;90683.13;;;26.88;38.75
6395;BME280;3230;42.588;23.358;2023-08-07T11:55:33;90676.22;;;26.98;39.53
6395;BME280;3230;42.588;23.358;2023-08-07T11:58:02;90683.13;;;26.99;40.82
6395;BME280;3230;42.588;23.358;2023-08-07T12:00:28;90678.84;;;26.73;38.38
6395;BME280;3230;42.588;23.358;2023-08-07T12:02:54;90682.31;;;26.66;39.75
6395;BME280;3230;42.588;23.358;2023-08-07T12:05:19;90675.72;;;26.42;40.08
6395;BME280;3230;42.588;23.358;2023-08-07T12:07:47;90684.13;;;26.29;39.25
6395;BME280;3230;42.588;23.358;2023-08-07T12:10:14;90676.84;;;26.26;40.97
6395;BME280;3230;42.588;23.358;2023-08-07T12:12:39;90679.41;;;26.01;40.71
6395;BME280;3230;42.588;23.358;2023-08-07T12:15:08;90678.47;;;25.64;40.67
6395;BME280;3230;42.588;23.358;2023-08-07T12:17:35;90677.66;;;25.57;41.33
6395;BME280;3230;42.588;23.358;2023-08-07T12:20:03;90671.66;;;25.22;41.13
6395;BME280;3230;42.588;23.358;2023-08-07T12:22:29;90662.75;;;25.07;42.81
6395;BME280;3230;42.588;23.358;2023-08-07T12:24:54;90670.84;;;25.14;41.76
6395;BME280;3230;42.588;23.358;2023-08-07T12:27:20;90671.31;;;25.23;43.18
6395;BME280;3230;42.588;23.358;2023-08-07T12:29:46;90672.22;;;25.42;42.90
6395;BME280;3230;42.588;23.358;2023-08-07T12:32:11;90674.78;;;25.31;42.93
6395;BME280;3230;42.588;23.358;2023-08-07T12:34:36;90671.75;;;25.36;42.12
6395;BME280;3230;42.588;23.358;2023-08-07T12:37:04;90672.22;;;25.42;43.68
6395;BME280;3230;42.588;23.358;2023-08-07T12:39:29;90668.22;;;25.21;42.14
6395;BME280;3230;42.588;23.358;2023-08-07T12:41:55;90665.56;;;25.25;43.29
6395;BME280;3230;42.588;23.358;2023-08-07T12:44:20;90664.81;;;25.32;42.67
6395;BME280;3230;42.588;23.358;2023-08-07T12:46:46;90670.38;;;25.05;42.35
6395;BME280;3230;42.588;23.358;2023-08-07T12:49:11;90673.16;;;25.16;42.36
6395;BME280;3230;42.588;23.358;2023-08-07T12:51:37;90670.44;;;25.12;43.41
6395;BME280;3230;42.588;23.358;2023-08-07T12:54:02;90680.91;;;25.32;42.63
6395;BME280;3230;42.588;23.358;2023-08-07T12:56:28;90686.41;;;25.50;42.86
6395;BME280;3230;42.588;23.358;2023-08-07T12:58:53;90675.94;;;25.34;43.21
6395;BME280;3230;42.588;23.358;2023-08-07T13:01:18;90681.78;;;25.40;45.26
6395;BME280;3230;42.588;23.358;2023-08-07T13:03:44;90683.34;;;25.51;45.58
6395;BME280;3230;42.588;23.358;2023-08-07T13:06:12;90685.84;;;25.22;44.95
6395;BME280;3230;42.588;23.358;2023-08-07T13:08:37;90684.75;;;25.34;44.09
6395;BME280;3230;42.588;23.358;2023-08-07T13:11:03;90685.84;;;25.22;44.99
6395;BME280;3230;42.588;23.358;2023-08-07T13:13:29;90681.50;;;25.59;44.50
6395;BME280;3230;42.588;23.358;2023-08-07T13:15:55;90685.31;;;25.58;44.04
6395;BME280;3230;42.588;23.358;2023-08-07T13:18:21;90680.41;;;25.67;44.53